Time;durP1;ratioP1;P1;durP2;ratioP2;P2;SDS_P1;SDS_P2;PMS_P1;PMS_P2;Temp;Humidity;BMP_temperature;BMP_pressure;BME280_temperature;BME280_humidity;BME280_pressure;Samples;Min_cycle;Max_cycle;Signal;HPM_P1;HPM_P2
2023/06/16 00:01:14;;;;;;;7.53;5.80;;;19.40;99.90;;;;;;4986355;28;20225;-72
2023/06/16 00:03:43;;;;;;;6.37;5.83;;;19.40;99.90;;;;;;4986202;28;20738;-71
2023/06/16 00:06:13;;;;;;;6.03;5.53;;;19.40;99.90;;;;;;4986468;28;20208;-72
2023/06/16 00:08:41;;;;;;;6.10;5.67;;;19.50;99.90;;;;;;4986097;28;20226;-71
2023/06/16 00:11:09;;;;;;;7.40;5.50;;;19.50;99.90;;;;;;4986219;28;20224;-71
2023/06/16 00:13:36;;;;;;;5.97;5.47;;;19.50;99.90;;;;;;4985617;28;20738;-71
2023/06/16 00:16:03;;;;;;;5.93;5.43;;;19.50;99.90;;;;;;4985554;28;20745;-71
2023/06/16 00:18:31;;;;;;;6.57;6.07;;;19.50;99.90;;;;;;4985889;28;20232;-71
2023/06/16 00:21:01;;;;;;;6.37;5.73;;;19.50;99.90;;;;;;4986276;28;20305;-71
2023/06/16 00:23:28;;;;;;;7.33;6.67;;;19.50;99.90;;;;;;4985538;28;20214;-72
2023/06/16 00:25:55;;;;;;;6.70;6.17;;;19.40;99.90;;;;;;4986243;28;20490;-71
2023/06/16 00:28:24;;;;;;;6.67;6.17;;;19.50;99.90;;;;;;4985910;28;20214;-71
2023/06/16 00:30:51;;;;;;;6.73;6.03;;;19.50;99.90;;;;;;4984825;28;20281;-71
2023/06/16 00:33:19;;;;;;;6.83;6.33;;;19.50;99.90;;;;;;4977010;28;20236;-71
2023/06/16 00:35:46;;;;;;;7.20;5.97;;;19.50;99.90;;;;;;4994162;28;20297;-72
2023/06/16 00:38:13;;;;;;;6.70;6.00;;;19.50;99.90;;;;;;4993099;28;20304;-71
2023/06/16 00:40:39;;;;;;;6.33;5.83;;;19.40;99.90;;;;;;4985982;28;20232;-71
2023/06/16 00:43:06;;;;;;;6.00;5.50;;;19.40;99.90;;;;;;4985964;28;20228;-72
2023/06/16 00:45:35;;;;;;;5.63;5.03;;;19.40;99.90;;;;;;4986038;28;20313;-72
2023/06/16 00:48:02;;;;;;;5.70;5.30;;;19.40;99.90;;;;;;4985506;28;20374;-72
2023/06/16 00:50:29;;;;;;;6.13;5.53;;;19.40;99.90;;;;;;4985581;28;20210;-71
2023/06/16 00:52:56;;;;;;;5.50;5.10;;;19.30;99.90;;;;;;4985443;28;20672;-71
2023/06/16 00:55:23;;;;;;;5.40;5.10;;;19.40;99.90;;;;;;4994779;28;20572;-71
2023/06/16 00:57:52;;;;;;;5.90;5.40;;;19.30;99.90;;;;;;4992311;28;20684;-71
2023/06/16 01:00:21;;;;;;;5.80;5.30;;;19.30;99.90;;;;;;5005165;28;20736;-71
2023/06/16 01:02:50;;;;;;;6.50;5.73;;;19.20;99.90;;;;;;5005447;28;20233;-72
2023/06/16 01:05:20;;;;;;;6.27;5.67;;;19.20;99.90;;;;;;5005321;28;20216;-71
2023/06/16 01:07:55;;;;;;;5.53;5.13;;;19.10;99.90;;;;;;4989409;28;20222;-71
2023/06/16 01:10:31;;;;;;;5.70;5.30;;;19.10;99.90;;;;;;4980888;28;20195;-72
2023/06/16 01:13:07;;;;;;;7.50;5.50;;;19.10;99.90;;;;;;4978550;28;20691;-72
2023/06/16 01:15:37;;;;;;;6.07;5.47;;;19.10;99.90;;;;;;4985025;28;20198;-72
2023/06/16 01:18:08;;;;;;;6.27;5.67;;;19.10;99.90;;;;;;4985712;28;20237;-72
2023/06/16 01:20:41;;;;;;;6.07;5.57;;;19.00;99.90;;;;;;4985860;28;20206;-72
2023/06/16 01:23:20;;;;;;;6.10;5.00;;;19.00;99.90;;;;;;4985674;28;20657;-71
2023/06/16 01:25:51;;;;;;;6.10;5.60;;;18.90;99.90;;;;;;4983854;28;20202;-70
2023/06/16 01:28:21;;;;;;;6.07;5.50;;;18.90;99.90;;;;;;4985301;28;20198;-70
2023/06/16 01:30:52;;;;;;;6.00;5.50;;;18.90;99.90;;;;;;4986296;28;20206;-72
2023/06/16 01:33:21;;;;;;;6.17;4.80;;;18.70;99.90;;;;;;5004552;28;20230;-73
2023/06/16 01:35:49;;;;;;;5.63;5.13;;;18.80;99.90;;;;;;4989172;28;20218;-72
2023/06/16 01:38:18;;;;;;;6.10;5.50;;;18.70;99.90;;;;;;4988636;28;20862;-72
2023/06/16 01:40:46;;;;;;;5.80;5.30;;;18.80;99.90;;;;;;4988778;28;20210;-70
2023/06/16 01:43:15;;;;;;;5.40;4.90;;;18.80;99.90;;;;;;4988591;28;20202;-70
2023/06/16 01:45:42;;;;;;;5.90;5.50;;;18.80;99.90;;;;;;4968983;28;20902;-71
2023/06/16 01:48:09;;;;;;;5.13;4.70;;;18.80;99.90;;;;;;4969274;28;20306;-71
2023/06/16 01:50:37;;;;;;;9.40;5.30;;;18.70;99.90;;;;;;4968899;28;20270;-71
2023/06/16 01:53:04;;;;;;;5.73;5.07;;;18.70;99.90;;;;;;4969065;28;20333;-71
2023/06/16 01:55:30;;;;;;;6.23;4.90;;;18.80;99.90;;;;;;4983286;28;20293;-71
2023/06/16 01:57:57;;;;;;;6.07;5.53;;;18.70;99.90;;;;;;4988399;28;20313;-71
2023/06/16 02:00:29;;;;;;;5.60;5.20;;;18.70;99.90;;;;;;4988474;28;20210;-72
2023/06/16 02:03:03;;;;;;;5.37;4.87;;;18.70;99.90;;;;;;4988858;28;20209;-72
2023/06/16 02:05:31;;;;;;;5.17;4.77;;;18.70;99.90;;;;;;4988727;28;20256;-72
2023/06/16 02:08:02;;;;;;;5.20;4.70;;;18.70;99.90;;;;;;4988219;28;20314;-71
2023/06/16 02:10:30;;;;;;;6.83;5.37;;;18.70;99.90;;;;;;4988474;28;20293;-71
2023/06/16 02:12:57;;;;;;;5.27;4.77;;;18.70;99.90;;;;;;4988394;28;20241;-72
2023/06/16 02:15:27;;;;;;;5.20;4.80;;;18.70;99.90;;;;;;4988277;28;20206;-71
2023/06/16 02:17:57;;;;;;;5.57;5.07;;;18.70;99.90;;;;;;4988812;28;20227;-72
2023/06/16 02:20:25;;;;;;;5.33;4.93;;;18.70;99.90;;;;;;4988100;28;20202;-72
2023/06/16 02:22:52;;;;;;;6.03;5.43;;;18.70;99.90;;;;;;4989121;28;20210;-72
2023/06/16 02:25:20;;;;;;;5.80;5.23;;;18.70;99.90;;;;;;4988047;28;20301;-70
2023/06/16 02:27:47;;;;;;;5.93;5.33;;;18.70;99.90;;;;;;4992479;28;20668;-68
2023/06/16 02:30:14;;;;;;;5.80;5.17;;;18.80;99.90;;;;;;4998721;28;20783;-71
2023/06/16 02:32:43;;;;;;;6.57;5.00;;;18.70;99.90;;;;;;4987376;28;20238;-71
2023/06/16 02:35:10;;;;;;;5.13;4.73;;;18.70;99.90;;;;;;4976699;28;20211;-71
2023/06/16 02:37:37;;;;;;;6.03;5.10;;;18.70;99.90;;;;;;4966742;28;20218;-71
2023/06/16 02:40:06;;;;;;;5.33;4.93;;;18.70;99.90;;;;;;4966907;28;20207;-71
2023/06/16 02:42:33;;;;;;;7.83;5.50;;;18.70;99.90;;;;;;4965727;28;20238;-71
2023/06/16 02:45:00;;;;;;;5.80;5.40;;;18.70;99.90;;;;;;4984593;28;20212;-71
2023/06/16 02:47:27;;;;;;;5.47;4.93;;;18.70;99.90;;;;;;4985655;28;20983;-71
2023/06/16 02:49:55;;;;;;;5.30;4.90;;;18.70;99.90;;;;;;4986141;28;20276;-71
2023/06/16 02:52:22;;;;;;;5.50;5.00;;;18.60;99.90;;;;;;4986074;28;20337;-72
2023/06/16 02:54:49;;;;;;;8.30;5.53;;;18.60;99.90;;;;;;4986119;28;20218;-72
2023/06/16 02:57:16;;;;;;;6.60;5.50;;;18.60;99.90;;;;;;4986363;28;20218;-72
2023/06/16 02:59:43;;;;;;;5.43;4.93;;;18.60;99.90;;;;;;4985922;28;20214;-72
2023/06/16 03:02:10;;;;;;;6.00;5.50;;;18.60;99.90;;;;;;4985663;28;20264;-73
2023/06/16 03:04:37;;;;;;;5.87;5.27;;;18.50;99.90;;;;;;4985849;28;20246;-73
2023/06/16 03:07:06;;;;;;;5.77;5.37;;;18.50;99.90;;;;;;4986472;28;20665;-72
2023/06/16 03:09:33;;;;;;;6.13;5.73;;;18.50;99.90;;;;;;4986486;28;20210;-72
2023/06/16 03:12:00;;;;;;;6.23;5.23;;;18.50;99.90;;;;;;4986070;28;20696;-72
2023/06/16 03:14:27;;;;;;;6.17;5.63;;;18.50;99.90;;;;;;4987200;28;20242;-72
2023/06/16 03:16:55;;;;;;;6.43;5.83;;;18.50;99.90;;;;;;4986668;28;20850;-72
2023/06/16 03:19:22;;;;;;;6.37;5.87;;;18.40;99.90;;;;;;4987292;28;20214;-72
2023/06/16 03:21:50;;;;;;;6.47;5.97;;;18.40;99.90;;;;;;4987478;28;20212;-72
2023/06/16 03:24:19;;;;;;;6.33;5.93;;;18.40;99.90;;;;;;4986027;28;20228;-72
2023/06/16 03:26:46;;;;;;;6.77;5.87;;;18.40;99.90;;;;;;4987225;28;20210;-72
2023/06/16 03:29:13;;;;;;;6.50;6.00;;;18.40;99.90;;;;;;4986950;28;20296;-72
2023/06/16 03:31:40;;;;;;;6.57;5.83;;;18.40;99.90;;;;;;4986885;28;20293;-72
2023/06/16 03:34:07;;;;;;;6.30;5.70;;;18.40;99.90;;;;;;4986651;28;20233;-72
2023/06/16 03:36:36;;;;;;;5.93;5.57;;;18.40;99.90;;;;;;4986691;28;20210;-72
2023/06/16 03:39:03;;;;;;;6.80;6.27;;;18.50;99.90;;;;;;4986803;28;20221;-72
2023/06/16 03:41:31;;;;;;;7.07;5.77;;;18.40;99.90;;;;;;4986499;28;20206;-72
2023/06/16 03:43:58;;;;;;;6.27;5.63;;;18.40;99.90;;;;;;4986391;28;20761;-72
2023/06/16 03:46:26;;;;;;;6.10;5.60;;;18.50;99.90;;;;;;4986389;28;20297;-73
2023/06/16 03:48:53;;;;;;;5.53;5.23;;;18.40;99.90;;;;;;4986453;28;20214;-72
2023/06/16 03:51:20;;;;;;;5.50;5.10;;;18.40;99.90;;;;;;4986226;28;20213;-72
2023/06/16 03:53:46;;;;;;;5.80;5.30;;;18.30;99.90;;;;;;4985934;28;20746;-72
2023/06/16 03:56:13;;;;;;;6.27;5.67;;;18.30;99.90;;;;;;5002352;28;20359;-72
2023/06/16 03:58:41;;;;;;;6.00;5.50;;;18.30;99.90;;;;;;5005954;28;20232;-72
2023/06/16 04:01:09;;;;;;;6.17;5.77;;;18.20;99.90;;;;;;5005793;28;20213;-72
2023/06/16 04:03:36;;;;;;;5.90;5.40;;;18.20;99.90;;;;;;5005876;28;20202;-72
2023/06/16 04:06:03;;;;;;;6.17;5.60;;;18.20;99.90;;;;;;5005951;28;20205;-72
2023/06/16 04:08:30;;;;;;;6.07;5.43;;;18.20;99.90;;;;;;5005882;28;20226;-72
2023/06/16 04:10:58;;;;;;;6.50;5.83;;;18.10;99.90;;;;;;5006058;28;20209;-72
2023/06/16 04:13:25;;;;;;;8.60;5.70;;;18.10;99.90;;;;;;4993682;28;20257;-72
2023/06/16 04:15:53;;;;;;;6.13;5.63;;;18.00;99.90;;;;;;5000940;28;20227;-72
2023/06/16 04:18:20;;;;;;;6.33;5.73;;;18.00;99.90;;;;;;5005282;28;20216;-72
2023/06/16 04:20:47;;;;;;;6.30;5.90;;;18.10;99.90;;;;;;4994768;28;20206;-72
2023/06/16 04:23:14;;;;;;;6.90;5.80;;;17.90;99.90;;;;;;4987453;28;20310;-72
2023/06/16 04:25:41;;;;;;;6.60;6.10;;;17.90;99.90;;;;;;4978010;28;20300;-72
2023/06/16 04:28:14;;;;;;;6.07;5.67;;;17.90;99.90;;;;;;4985892;28;20664;-72
2023/06/16 04:30:41;;;;;;;5.93;5.43;;;18.00;99.90;;;;;;4985709;28;20908;-72
2023/06/16 04:33:09;;;;;;;6.53;5.40;;;18.10;99.90;;;;;;4985647;28;20242;-72
2023/06/16 04:35:38;;;;;;;5.93;5.43;;;18.00;99.90;;;;;;4985687;28;20321;-72
2023/06/16 04:38:07;;;;;;;6.57;5.97;;;18.00;99.90;;;;;;4985766;28;20676;-72
2023/06/16 04:40:34;;;;;;;6.53;5.93;;;18.10;99.90;;;;;;4985797;28;20207;-72
2023/06/16 04:43:03;;;;;;;7.27;6.03;;;18.00;99.90;;;;;;4986276;28;20250;-72
2023/06/16 04:45:30;;;;;;;6.43;5.90;;;18.00;99.90;;;;;;4985632;28;20232;-72
2023/06/16 04:47:56;;;;;;;7.27;5.83;;;18.00;99.90;;;;;;4986147;28;20304;-72
2023/06/16 04:50:25;;;;;;;5.90;5.30;;;18.10;99.90;;;;;;4985944;28;20314;-72
2023/06/16 04:52:51;;;;;;;8.37;5.73;;;18.00;99.90;;;;;;4985532;28;20237;-72
2023/06/16 04:55:20;;;;;;;6.37;5.63;;;18.00;99.90;;;;;;4997658;28;20296;-72
2023/06/16 04:57:47;;;;;;;6.53;5.87;;;18.00;99.90;;;;;;5005680;28;20210;-72
2023/06/16 05:00:15;;;;;;;5.87;5.37;;;18.10;99.90;;;;;;5005303;28;20297;-72
2023/06/16 05:02:42;;;;;;;6.23;5.67;;;18.00;99.90;;;;;;5005516;28;20220;-72
2023/06/16 05:05:10;;;;;;;5.77;5.27;;;18.10;99.90;;;;;;4996108;28;20220;-72
2023/06/16 05:07:38;;;;;;;5.73;5.33;;;18.10;99.90;;;;;;4988734;28;20234;-72
2023/06/16 05:10:06;;;;;;;6.07;5.57;;;18.00;99.90;;;;;;4989188;28;20303;-72
2023/06/16 05:12:33;;;;;;;5.97;5.47;;;18.10;99.90;;;;;;4989139;28;20309;-72
2023/06/16 05:15:00;;;;;;;6.63;6.03;;;18.20;99.90;;;;;;4988808;28;20730;-72
2023/06/16 05:17:27;;;;;;;7.20;6.50;;;18.20;99.90;;;;;;5000987;28;20209;-72
2023/06/16 05:19:54;;;;;;;6.40;5.90;;;18.20;99.90;;;;;;4992841;28;20210;-72
2023/06/16 05:22:23;;;;;;;5.77;5.37;;;18.10;99.90;;;;;;4988823;28;20210;-72
2023/06/16 05:24:56;;;;;;;5.53;5.13;;;18.10;99.90;;;;;;4988992;28;20218;-72
2023/06/16 05:27:23;;;;;;;6.03;5.57;;;18.20;99.90;;;;;;4989287;28;20309;-72
2023/06/16 05:29:51;;;;;;;6.37;5.33;;;18.20;99.90;;;;;;4988909;28;20206;-72
2023/06/16 05:32:19;;;;;;;5.37;4.97;;;18.20;99.90;;;;;;4989222;28;20232;-72
2023/06/16 05:34:46;;;;;;;5.50;5.10;;;18.10;99.90;;;;;;4989043;28;20237;-73
2023/06/16 05:37:15;;;;;;;6.10;5.50;;;18.10;99.90;;;;;;4988990;28;20976;-72
2023/06/16 05:39:42;;;;;;;10.07;4.60;;;17.90;99.90;;;;;;4988994;28;20209;-72
2023/06/16 05:42:11;;;;;;;6.03;4.70;;;18.00;99.90;;;;;;4988906;28;20225;-72
2023/06/16 05:44:38;;;;;;;5.53;5.00;;;17.90;99.90;;;;;;4988675;28;20218;-72
2023/06/16 05:47:06;;;;;;;5.30;4.83;;;17.90;99.90;;;;;;4980364;28;20294;-72
2023/06/16 05:49:33;;;;;;;4.40;4.10;;;17.90;99.90;;;;;;4968655;28;20215;-72
2023/06/16 05:52:01;;;;;;;5.20;4.80;;;17.90;99.90;;;;;;4969071;28;20289;-72
2023/06/16 05:54:28;;;;;;;5.40;4.70;;;18.00;99.90;;;;;;4972074;28;20590;-72
2023/06/16 05:56:57;;;;;;;5.70;5.20;;;18.00;99.90;;;;;;5008036;28;20237;-72
2023/06/16 05:59:26;;;;;;;4.30;4.00;;;18.00;99.90;;;;;;5007646;28;20743;-72
2023/06/16 06:01:53;;;;;;;4.53;4.30;;;18.00;99.90;;;;;;5007653;28;20582;-72
2023/06/16 06:04:22;;;;;;;5.27;4.87;;;17.80;99.90;;;;;;5007736;28;20205;-72
2023/06/16 06:06:49;;;;;;;5.27;4.97;;;17.80;99.90;;;;;;4988056;28;20688;-72
2023/06/16 06:09:16;;;;;;;4.80;4.50;;;17.70;99.90;;;;;;4987698;28;20211;-72
2023/06/16 06:11:43;;;;;;;5.50;5.20;;;17.50;99.90;;;;;;4988206;28;20246;-72
2023/06/16 06:14:11;;;;;;;5.80;5.40;;;17.10;99.90;;;;;;4988111;28;20230;-71
2023/06/16 06:16:39;;;;;;;6.00;5.50;;;17.10;99.90;;;;;;4987442;28;20221;-72
2023/06/16 06:19:06;;;;;;;6.03;5.57;;;17.00;99.90;;;;;;4987915;28;20723;-73
2023/06/16 06:21:33;;;;;;;5.80;5.30;;;17.20;99.90;;;;;;4988297;28;20673;-72
2023/06/16 06:24:00;;;;;;;5.90;5.40;;;17.40;99.90;;;;;;4987799;28;20241;-72
2023/06/16 06:26:27;;;;;;;5.67;5.17;;;17.40;99.90;;;;;;4987922;28;20217;-72
2023/06/16 06:28:57;;;;;;;5.83;5.43;;;17.20;99.90;;;;;;4987756;28;20214;-72
2023/06/16 06:31:24;;;;;;;6.23;5.80;;;17.30;99.90;;;;;;4987725;28;20238;-72
2023/06/16 06:33:52;;;;;;;5.97;5.57;;;17.40;99.90;;;;;;4987915;28;20337;-72
2023/06/16 06:36:23;;;;;;;7.30;6.13;;;17.50;99.90;;;;;;4988317;28;20214;-72
2023/06/16 06:38:50;;;;;;;6.50;5.90;;;17.60;99.90;;;;;;4987749;28;20241;-72
2023/06/16 06:41:18;;;;;;;6.23;5.77;;;17.70;99.90;;;;;;4987981;28;20313;-72
2023/06/16 06:43:45;;;;;;;6.57;5.97;;;17.70;99.90;;;;;;4987588;28;20305;-72
2023/06/16 06:46:12;;;;;;;6.73;6.23;;;17.70;99.90;;;;;;4987648;28;20644;-71
2023/06/16 06:48:39;;;;;;;6.80;6.30;;;17.70;99.90;;;;;;4987574;28;20214;-72
2023/06/16 06:51:08;;;;;;;7.30;6.60;;;17.70;99.90;;;;;;4987391;28;20640;-71
2023/06/16 06:53:35;;;;;;;7.17;6.67;;;17.70;99.90;;;;;;4987046;28;20340;-72
2023/06/16 06:56:02;;;;;;;6.97;6.30;;;17.70;99.90;;;;;;4987329;28;20938;-72
2023/06/16 06:58:29;;;;;;;7.40;6.80;;;17.70;99.90;;;;;;4987342;28;20225;-72
2023/06/16 07:00:56;;;;;;;7.43;6.73;;;17.70;99.90;;;;;;4986845;28;20768;-71
2023/06/16 07:03:23;;;;;;;7.00;6.50;;;17.60;99.90;;;;;;4991825;28;20237;-71
2023/06/16 07:05:55;;;;;;;7.23;6.73;;;17.50;99.90;;;;;;5006550;28;20329;-71
2023/06/16 07:08:24;;;;;;;7.40;6.70;;;17.40;99.90;;;;;;4995550;28;20716;-72
2023/06/16 07:10:51;;;;;;;7.50;6.90;;;17.40;99.90;;;;;;4987123;28;20221;-71
2023/06/16 07:13:18;;;;;;;7.87;7.17;;;17.50;99.90;;;;;;4986960;28;20287;-71
2023/06/16 07:15:48;;;;;;;7.70;7.10;;;17.60;99.90;;;;;;4986691;28;20276;-72
2023/06/16 07:18:15;;;;;;;7.07;6.47;;;17.70;99.90;;;;;;4987086;28;20626;-71
2023/06/16 07:20:42;;;;;;;7.57;6.97;;;17.70;99.90;;;;;;4987090;28;20238;-71
2023/06/16 07:23:09;;;;;;;8.70;8.00;;;17.80;99.90;;;;;;4986798;28;20672;-71
2023/06/16 07:25:38;;;;;;;8.00;7.40;;;17.80;99.90;;;;;;4997776;28;20213;-71
2023/06/16 07:28:05;;;;;;;8.40;7.70;;;17.90;99.90;;;;;;5006175;28;20934;-71
2023/06/16 07:30:32;;;;;;;9.17;8.33;;;17.90;99.90;;;;;;5006258;28;20213;-71
2023/06/16 07:32:59;;;;;;;9.10;8.20;;;17.90;99.90;;;;;;5006605;28;20241;-71
2023/06/16 07:35:26;;;;;;;8.43;7.53;;;18.00;99.90;;;;;;5006241;28;20233;-71
2023/06/16 07:37:53;;;;;;;8.50;7.80;;;18.10;99.90;;;;;;5005821;28;20249;-71
2023/06/16 07:40:20;;;;;;;8.97;8.13;;;18.10;99.90;;;;;;5005874;28;20308;-71
2023/06/16 07:42:48;;;;;;;8.23;7.43;;;18.20;99.90;;;;;;5006131;28;20584;-71
2023/06/16 07:45:17;;;;;;;8.50;7.90;;;18.20;99.90;;;;;;5005614;28;20781;-71
2023/06/16 07:47:46;;;;;;;8.17;7.47;;;18.30;99.90;;;;;;5005830;28;20210;-71
2023/06/16 07:50:13;;;;;;;8.90;7.87;;;18.30;99.90;;;;;;5005911;28;20209;-71
2023/06/16 07:52:41;;;;;;;8.17;7.47;;;18.50;99.90;;;;;;5005779;28;20233;-71
2023/06/16 07:55:09;;;;;;;7.77;7.17;;;18.70;99.90;;;;;;4995263;28;20244;-71
2023/06/16 07:57:38;;;;;;;8.30;7.53;;;18.70;99.90;;;;;;4986112;28;20233;-71
2023/06/16 08:00:11;;;;;;;7.97;7.27;;;18.90;99.90;;;;;;4985868;28;20831;-71
2023/06/16 08:02:39;;;;;;;7.50;6.80;;;19.00;99.90;;;;;;4986333;28;20198;-71
2023/06/16 08:05:07;;;;;;;7.17;6.67;;;19.00;99.90;;;;;;4989400;28;20227;-72
2023/06/16 08:07:34;;;;;;;8.33;7.03;;;19.00;99.90;;;;;;4998542;28;20308;-71
2023/06/16 08:10:01;;;;;;;7.57;7.00;;;18.40;99.90;;;;;;4985673;28;20210;-71
2023/06/16 08:12:28;;;;;;;7.00;6.60;;;18.50;99.90;;;;;;4986151;28;20734;-71
2023/06/16 08:14:55;;;;;;;7.60;6.77;;;18.40;99.90;;;;;;4986018;28;20237;-71
2023/06/16 08:17:23;;;;;;;6.40;5.80;;;18.20;99.90;;;;;;4986173;28;20451;-71
2023/06/16 08:19:52;;;;;;;6.20;5.70;;;18.20;99.90;;;;;;4985537;28;20264;-71
2023/06/16 08:22:19;;;;;;;6.03;5.60;;;18.20;99.90;;;;;;4986010;28;20217;-71
2023/06/16 08:24:46;;;;;;;5.07;4.67;;;18.20;99.90;;;;;;4989857;28;20210;-70
2023/06/16 08:27:14;;;;;;;5.10;4.70;;;18.20;99.90;;;;;;5005586;28;20205;-71
2023/06/16 08:29:41;;;;;;;4.53;4.23;;;18.20;99.90;;;;;;5005137;28;20666;-71
2023/06/16 08:32:08;;;;;;;4.67;4.37;;;18.20;99.90;;;;;;5005519;28;20295;-71
2023/06/16 08:34:36;;;;;;;5.90;5.40;;;18.20;99.90;;;;;;5004887;28;20265;-71
2023/06/16 08:37:05;;;;;;;4.97;4.47;;;18.30;99.90;;;;;;5005642;28;20292;-71
2023/06/16 08:39:31;;;;;;;4.90;4.50;;;18.20;99.90;;;;;;5005581;28;20256;-71
2023/06/16 08:42:00;;;;;;;4.93;4.63;;;18.30;99.90;;;;;;5009039;28;20297;-71
2023/06/16 08:44:29;;;;;;;4.80;4.50;;;18.40;99.90;;;;;;5009302;28;20209;-71
2023/06/16 08:46:57;;;;;;;5.10;4.70;;;18.30;99.90;;;;;;5009317;28;20673;-71
2023/06/16 08:49:24;;;;;;;4.80;4.50;;;18.30;99.90;;;;;;5009422;28;20296;-70
2023/06/16 08:51:56;;;;;;;5.20;4.80;;;18.20;99.90;;;;;;5009375;28;20209;-70
2023/06/16 08:54:26;;;;;;;5.50;4.60;;;18.30;99.90;;;;;;5008136;28;20337;-71
2023/06/16 08:56:53;;;;;;;4.87;4.47;;;18.40;99.90;;;;;;4976647;28;20203;-71
2023/06/16 08:59:23;;;;;;;5.07;4.47;;;18.40;99.90;;;;;;4970305;28;20298;-71
2023/06/16 09:01:50;;;;;;;5.47;4.30;;;18.50;99.90;;;;;;4984111;28;20208;-71
2023/06/16 09:04:17;;;;;;;4.23;3.97;;;18.70;99.90;;;;;;4998554;28;20222;-71
2023/06/16 09:06:45;;;;;;;4.47;4.17;;;18.90;99.90;;;;;;4989450;28;20326;-71
2023/06/16 09:09:14;;;;;;;4.20;4.00;;;19.00;99.90;;;;;;4988981;28;20301;-71
2023/06/16 09:11:41;;;;;;;4.73;4.40;;;19.10;99.90;;;;;;4989487;28;20289;-71
2023/06/16 09:14:13;;;;;;;4.50;4.20;;;19.30;99.90;;;;;;4989274;28;20317;-71
2023/06/16 09:16:41;;;;;;;4.60;4.20;;;19.30;99.90;;;;;;4988952;28;20210;-70
2023/06/16 09:19:09;;;;;;;3.80;3.60;;;19.50;99.90;;;;;;4989277;28;20233;-71
2023/06/16 09:21:37;;;;;;;4.20;3.90;;;19.60;99.90;;;;;;4989008;28;20214;-71
2023/06/16 09:24:05;;;;;;;3.70;3.50;;;19.80;99.90;;;;;;4989158;28;20356;-70
2023/06/16 09:26:36;;;;;;;3.60;3.40;;;19.90;99.90;;;;;;4989061;28;20230;-71
2023/06/16 09:29:20;;;;;;;4.17;3.43;;;19.90;99.90;;;;;;4988889;28;20641;-71
2023/06/16 09:31:47;;;;;;;3.90;3.60;;;19.90;99.90;;;;;;4989180;28;20212;-71
2023/06/16 09:34:14;;;;;;;3.40;3.20;;;19.80;99.90;;;;;;4989124;28;20720;-71
2023/06/16 09:36:41;;;;;;;3.50;3.30;;;19.70;99.90;;;;;;4989344;28;20210;-71
2023/06/16 09:39:21;;;;;;;3.93;3.70;;;19.70;99.90;;;;;;4989046;28;20297;-71
2023/06/16 09:41:49;;;;;;;4.17;3.97;;;19.70;99.90;;;;;;4989258;28;20210;-71
2023/06/16 09:44:16;;;;;;;4.40;3.73;;;19.60;99.90;;;;;;4988823;28;20297;-71
2023/06/16 09:46:44;;;;;;;4.13;3.73;;;19.60;99.90;;;;;;4983809;28;20205;-71
2023/06/16 09:49:20;;;;;;;3.93;3.63;;;19.60;99.90;;;;;;4969224;28;20310;-71
2023/06/16 09:51:51;;;;;;;4.03;3.70;;;19.50;99.90;;;;;;4972311;28;20206;-71
2023/06/16 09:54:20;;;;;;;3.83;3.60;;;19.50;99.90;;;;;;5007548;28;20569;-71
2023/06/16 09:56:49;;;;;;;4.00;3.40;;;19.40;99.90;;;;;;4988311;28;20214;-71
2023/06/16 09:59:16;;;;;;;4.53;3.77;;;19.50;99.90;;;;;;5004326;28;20644;-71
2023/06/16 10:01:45;;;;;;;4.60;4.17;;;19.50;99.90;;;;;;4988426;28;20292;-71
2023/06/16 10:04:13;;;;;;;4.37;4.07;;;19.40;99.90;;;;;;4988195;28;20228;-71
2023/06/16 10:06:48;;;;;;;3.93;3.57;;;19.60;99.90;;;;;;4988293;28;20778;-71
2023/06/16 10:09:17;;;;;;;3.97;3.60;;;19.80;99.90;;;;;;4987940;28;20193;-71
2023/06/16 10:11:47;;;;;;;4.17;3.80;;;19.80;99.90;;;;;;4988802;28;20206;-71
2023/06/16 10:14:18;;;;;;;4.30;3.80;;;19.90;99.90;;;;;;4988227;28;20301;-71
2023/06/16 10:16:49;;;;;;;4.87;3.90;;;20.20;99.90;;;;;;4987972;28;20202;-71
2023/06/16 10:19:20;;;;;;;3.93;3.57;;;20.40;99.90;;;;;;4988245;28;20202;-71
2023/06/16 10:21:48;;;;;;;3.70;3.40;;;20.40;99.90;;;;;;4988473;28;20209;-71
2023/06/16 10:24:16;;;;;;;4.10;3.80;;;20.20;99.90;;;;;;4988294;28;20310;-71
2023/06/16 10:26:44;;;;;;;3.63;3.43;;;19.90;99.90;;;;;;4968849;28;20219;-71
2023/06/16 10:29:16;;;;;;;4.13;3.83;;;19.80;99.90;;;;;;4968580;28;20309;-71
2023/06/16 10:31:45;;;;;;;4.73;3.87;;;19.70;99.90;;;;;;4968207;28;20206;-71
2023/06/16 10:34:20;;;;;;;4.53;3.60;;;19.90;99.90;;;;;;4968052;28;20219;-71
2023/06/16 10:36:51;;;;;;;4.27;3.87;;;19.90;99.90;;;;;;4968109;28;20628;-71
2023/06/16 10:39:18;;;;;;;4.13;3.83;;;19.90;99.90;;;;;;4967969;28;20713;-71
2023/06/16 10:41:54;;;;;;;5.13;3.97;;;19.80;99.90;;;;;;4968287;28;20210;-71
2023/06/16 10:44:29;;;;;;;4.37;3.87;;;19.80;99.90;;;;;;4968179;28;20214;-71
2023/06/16 10:47:28;;;;;;;5.40;4.10;;;19.80;99.90;;;;;;4974790;28;20202;-71
2023/06/16 10:49:58;;;;;;;3.70;3.40;;;19.90;99.90;;;;;;5004166;28;20277;-71
2023/06/16 10:52:52;;;;;;;4.37;3.97;;;20.10;99.90;;;;;;5004102;28;20245;-71
2023/06/16 10:55:33;;;;;;;4.67;4.27;;;20.20;99.90;;;;;;4994094;28;20232;-71
2023/06/16 10:58:26;;;;;;;4.40;4.10;;;20.20;99.90;;;;;;4968508;28;20203;-71
2023/06/16 11:01:06;;;;;;;4.23;3.93;;;20.30;99.90;;;;;;4968281;28;20223;-71
2023/06/16 11:03:38;;;;;;;3.70;3.50;;;20.00;99.90;;;;;;4966953;28;20653;-71
2023/06/16 11:06:06;;;;;;;3.97;3.73;;;20.10;99.90;;;;;;4975712;28;20293;-71
2023/06/16 11:08:49;;;;;;;4.20;3.60;;;20.00;99.90;;;;;;5006469;28;20233;-71
2023/06/16 11:11:17;;;;;;;4.27;3.87;;;20.00;99.90;;;;;;5006797;28;20225;-71
2023/06/16 11:13:44;;;;;;;4.63;4.03;;;19.90;99.90;;;;;;5006891;28;20785;-71
2023/06/16 11:16:11;;;;;;;4.63;4.33;;;19.80;99.90;;;;;;5006174;28;20299;-71
2023/06/16 11:18:39;;;;;;;5.23;4.83;;;19.80;99.90;;;;;;5006114;28;20213;-71
2023/06/16 11:21:07;;;;;;;5.00;4.57;;;19.70;99.90;;;;;;5006817;28;20237;-71
2023/06/16 11:23:36;;;;;;;4.90;4.50;;;19.70;99.90;;;;;;4997984;28;20217;-71
2023/06/16 11:26:05;;;;;;;4.97;4.63;;;19.60;99.90;;;;;;4986659;28;20237;-71
2023/06/16 11:28:33;;;;;;;5.13;4.83;;;19.60;99.90;;;;;;4986676;28;20874;-71
2023/06/16 11:31:01;;;;;;;4.70;4.20;;;19.60;99.90;;;;;;4986733;28;20217;-71
2023/06/16 11:33:28;;;;;;;4.43;4.13;;;19.70;99.90;;;;;;4986241;28;20245;-71
2023/06/16 11:35:57;;;;;;;5.87;3.97;;;19.60;99.90;;;;;;4986800;28;20296;-71
2023/06/16 11:38:25;;;;;;;4.40;4.00;;;19.70;99.90;;;;;;4986368;28;20206;-71
2023/06/16 11:40:53;;;;;;;4.17;3.87;;;19.80;99.90;;;;;;4986699;28;20217;-71
2023/06/16 11:43:23;;;;;;;3.67;3.47;;;19.70;99.90;;;;;;4986628;28;20230;-71
2023/06/16 11:45:52;;;;;;;4.20;3.90;;;19.90;99.90;;;;;;4986271;28;20239;-71
2023/06/16 11:48:19;;;;;;;5.57;3.60;;;20.10;99.90;;;;;;4985973;28;20651;-71
2023/06/16 11:50:46;;;;;;;4.20;3.90;;;20.30;99.90;;;;;;4971913;28;20199;-71
2023/06/16 11:53:16;;;;;;;3.67;3.37;;;20.30;99.90;;;;;;4985798;28;20317;-71
2023/06/16 11:55:50;;;;;;;3.97;3.53;;;20.40;99.90;;;;;;4986184;28;20237;-71
2023/06/16 11:58:17;;;;;;;4.23;3.20;;;20.30;99.90;;;;;;4986569;28;20194;-71
2023/06/16 12:00:45;;;;;;;3.50;3.20;;;20.20;99.90;;;;;;4986459;28;20532;-70
2023/06/16 12:03:13;;;;;;;3.80;3.50;;;20.00;99.90;;;;;;4986152;28;20668;-71
2023/06/16 12:05:41;;;;;;;3.83;3.50;;;19.90;99.90;;;;;;4986734;28;20222;-71
2023/06/16 12:08:08;;;;;;;4.03;3.73;;;19.80;99.90;;;;;;5005826;28;20240;-71
2023/06/16 12:10:36;;;;;;;4.30;3.40;;;19.80;99.90;;;;;;5005628;28;20301;-71
2023/06/16 12:13:08;;;;;;;3.87;3.57;;;20.20;99.90;;;;;;5005993;28;20210;-71
2023/06/16 12:15:35;;;;;;;3.97;3.60;;;20.30;99.90;;;;;;5005284;28;20336;-71
2023/06/16 12:18:02;;;;;;;4.03;3.63;;;20.30;99.90;;;;;;5005318;28;20249;-71
2023/06/16 12:20:29;;;;;;;4.30;3.67;;;20.10;99.90;;;;;;5005590;28;20209;-71
2023/06/16 12:22:56;;;;;;;4.07;3.67;;;20.30;99.90;;;;;;5002269;28;20294;-72
2023/06/16 12:25:23;;;;;;;4.03;3.80;;;20.10;99.90;;;;;;4985326;28;20676;-72
2023/06/16 12:27:52;;;;;;;4.53;4.13;;;19.90;99.90;;;;;;4986223;28;20224;-72
2023/06/16 12:30:19;;;;;;;4.60;4.20;;;19.90;99.90;;;;;;4985595;28;20312;-72
2023/06/16 12:32:47;;;;;;;4.30;3.90;;;20.10;99.90;;;;;;4986080;28;20811;-72
2023/06/16 12:35:23;;;;;;;4.57;4.17;;;20.30;99.90;;;;;;4985726;28;20515;-72
2023/06/16 12:37:50;;;;;;;5.27;4.27;;;20.60;99.90;;;;;;5003821;28;20304;-72
2023/06/16 12:40:17;;;;;;;6.40;4.50;;;20.80;99.90;;;;;;5005257;28;20209;-72
2023/06/16 12:42:44;;;;;;;5.37;4.90;;;20.60;99.90;;;;;;4986046;28;20206;-72
2023/06/16 12:45:12;;;;;;;6.43;5.80;;;20.50;99.90;;;;;;4985700;28;20321;-72
2023/06/16 12:47:39;;;;;;;5.57;4.87;;;20.70;99.90;;;;;;4999366;28;20205;-72
2023/06/16 12:50:07;;;;;;;6.43;5.73;;;21.20;99.90;;;;;;4988614;28;20293;-73
2023/06/16 12:52:34;;;;;;;5.43;5.03;;;20.70;99.90;;;;;;4985619;28;20352;-72
2023/06/16 12:55:03;;;;;;;6.23;4.90;;;20.70;99.90;;;;;;4978931;28;20234;-72